CZUM/ZUM METAR and TAF weather

Enter ICAO airport designator
Station Type Date Time Source
CZUM METAR 2022/07/03 14:00 UTC NOAA

CZUM 031400Z AUTO 24006G17KT 190V320 9SM OVC048 12/03 A2960 RMK SLP034 DENSITY ALT 1800FT


Station Type Date Time Source
CZUM Decoded METAR 2022/07/03 14:00 UTC NOAA

Churchill Falls, Nfld., Canada (CZUM) 53-33N 064-06W 440M
Jul 03, 2022 - 10:00 AM EDT / 2022.07.03 1400 UTC
Wind: from the WSW (240 degrees) at 7 MPH (6 KT) gusting to 20 MPH (17 KT) (direction variable):0
Visibility: 9 mile(s):0
Sky conditions: overcast
Temperature: 53 F (12 C)
Dew Point: 37 F (3 C)
Relative Humidity: 54%
Pressure (altimeter): 29.6 in. Hg (1002 hPa)
ob: CZUM 031400Z AUTO 24006G17KT 190V320 9SM OVC048 12/03 A2960 RMK SLP034 DENSITY ALT 1800FT
cycle: 14

Station Type Date Time Source
CZUM TAF 2022/07/03 14:42 UTC NOAA

TAF CZUM 031340Z 0314/0402 25008KT P6SM BKN040
BECMG 0314/0316 25012G22KT
FM031800 25015G25KT P6SM BKN040
TEMPO 0318/0402 5SM -SHRA BR
BECMG 0320/0322 26012G22KT
RMK FCST BASED ON AUTO OBS. NXT FCST BY 032000Z

Example: see airport list